Mormon Lake, Arizona
Current Conditions -  °F | °C
As of 6:35 PM on Monday 22 Dec 2014 (Local Time) from KSEZ Reporting Station
Broken Clouds Broken Clouds  
Wind Chill: 57°   Ceiling: 8500
Heat Index: 57°   Visibility: 10mi
Dew Point: 32°   Wind: 10mph
Humidity: 38%   Direction: 330°NNW
Pressure: 29.97"   Gusts: NA
Location:  34.91°N, 111.47°W
Report Text: KSEZ 230135Z AUTO 33009KT 10SM SCT075 BKN085 14/00 A2997 RMK AO2
Loading
Personal Weather Stations






























Interactive Weather Map New forecast layout! Learn more

10-Day Weather Forecast

Advertisements
Track Severe Weather on mobile